createdAt,value
2022-10-31T00:02:12.167Z,100330.09
2022-10-31T00:07:13.912Z,100328.50
2022-10-31T00:12:15.527Z,100336.47
2022-10-31T00:17:17.633Z,100343.88
2022-10-31T00:22:19.209Z,100341.88
2022-10-31T00:27:21.148Z,100352.53
2022-10-31T00:32:23.013Z,100349.16
2022-10-31T00:37:24.842Z,100350.03
2022-10-31T00:42:26.653Z,100352.91
2022-10-31T00:47:28.227Z,100352.91
2022-10-31T00:52:29.821Z,100347.66
2022-10-31T00:57:32.347Z,100346.31
2022-10-31T01:02:34.065Z,100361.88
2022-10-31T01:07:40.572Z,100355.53
2022-10-31T01:12:46.480Z,100369.66
2022-10-31T01:17:49.563Z,100366.03
2022-10-31T01:22:51.136Z,100363.66
2022-10-31T01:27:52.677Z,100361.56
2022-10-31T01:32:54.189Z,100367.34
2022-10-31T01:37:55.715Z,100358.09
2022-10-31T01:42:57.662Z,100368.19
2022-10-31T01:47:59.896Z,100360.66
2022-10-31T01:53:03.254Z,100362.38
2022-10-31T01:58:13.009Z,100361.97
2022-10-31T02:03:15.165Z,100370.41
2022-10-31T02:08:24.584Z,100369.00
2022-10-31T02:13:28.642Z,100371.22
2022-10-31T02:18:31.561Z,100370.06
2022-10-31T02:23:54.876Z,100362.63
2022-10-31T02:29:18.351Z,100377.91
2022-10-31T02:34:24.847Z,100379.34
2022-10-31T02:39:48.898Z,100382.28
2022-10-31T02:45:08.841Z,100371.13
2022-10-31T02:50:17.133Z,100390.06
2022-10-31T02:55:27.889Z,100388.59
2022-10-31T03:00:44.811Z,100389.59
2022-10-31T03:06:04.468Z,100389.59
2022-10-31T03:11:10.676Z,100394.81
2022-10-31T03:16:18.745Z,100389.41
2022-10-31T03:21:31.439Z,100387.94
2022-10-31T03:26:39.142Z,100391.81
2022-10-31T03:31:48.042Z,100401.34
2022-10-31T03:36:55.978Z,100395.50
2022-10-31T03:42:03.381Z,100410.28
2022-10-31T03:47:05.760Z,100405.56
2022-10-31T03:52:25.931Z,100404.69
2022-10-31T03:57:32.690Z,100408.72
2022-10-31T04:02:42.479Z,100407.06
2022-10-31T04:07:47.239Z,100412.63
2022-10-31T04:12:54.179Z,100416.75
2022-10-31T04:18:01.228Z,100413.09
2022-10-31T04:23:04.879Z,100409.22
2022-10-31T04:28:06.902Z,100420.50
2022-10-31T04:33:09.135Z,100418.19
2022-10-31T04:38:10.986Z,100423.09
2022-10-31T04:43:14.139Z,100420.28
2022-10-31T04:48:18.283Z,100416.22
2022-10-31T04:53:20.356Z,100421.59
2022-10-31T04:58:53.938Z,100424.22
2022-10-31T05:03:57.433Z,100422.34
2022-10-31T05:08:59.675Z,100424.00
2022-10-31T05:14:01.345Z,100425.78
2022-10-31T05:19:25.769Z,100425.69
2022-10-31T05:24:56.003Z,100429.75
2022-10-31T05:29:58.027Z,100427.72
2022-10-31T05:34:59.706Z,100433.75
2022-10-31T05:40:24.316Z,100437.69
2022-10-31T05:45:26.032Z,100441.19
2022-10-31T05:50:32.863Z,100446.31
2022-10-31T05:55:52.180Z,100446.41
2022-10-31T06:00:56.157Z,100445.50
2022-10-31T06:05:58.211Z,100449.78
2022-10-31T06:11:05.245Z,100450.72
2022-10-31T06:16:25.787Z,100456.81
2022-10-31T06:21:30.857Z,100468.09
2022-10-31T06:26:32.497Z,100464.75
2022-10-31T06:31:34.264Z,100475.88
2022-10-31T06:36:36.135Z,100479.34
2022-10-31T06:41:40.606Z,100482.00
2022-10-31T06:46:42.738Z,100492.19
2022-10-31T06:52:02.848Z,100490.56
2022-10-31T06:57:04.638Z,100495.31
2022-10-31T07:02:10.690Z,100493.56
2022-10-31T07:07:13.837Z,100498.84
2022-10-31T07:12:17.743Z,100503.81
2022-10-31T07:17:30.012Z,100515.06
2022-10-31T07:22:38.415Z,100514.91
2022-10-31T07:27:44.014Z,100520.03
2022-10-31T07:32:51.746Z,100521.59
2022-10-31T07:37:55.734Z,100521.19
2022-10-31T07:42:58.900Z,100527.25
2022-10-31T07:48:26.771Z,100529.72
2022-10-31T07:53:47.099Z,100529.47
2022-10-31T07:58:57.899Z,100521.84
2022-10-31T08:03:59.539Z,100532.25
2022-10-31T08:09:19.420Z,100532.06
2022-10-31T08:14:21.174Z,100535.28
2022-10-31T08:19:22.758Z,100535.66
2022-10-31T08:24:25.649Z,100531.16
2022-10-31T08:29:29.183Z,100513.94
2022-10-31T08:34:31.748Z,100520.50
2022-10-31T08:40:09.356Z,100518.50
2022-10-31T08:45:10.937Z,100515.59
2022-10-31T08:50:12.513Z,100515.88
2022-10-31T08:55:14.366Z,100527.66
2022-10-31T09:00:35.782Z,100523.91
2022-10-31T09:05:46.893Z,100519.03
2022-10-31T09:10:48.859Z,100521.34
2022-10-31T09:15:58.398Z,100516.88
2022-10-31T09:21:01.118Z,100525.19
2022-10-31T09:26:09.887Z,100520.81
2022-10-31T09:31:42.215Z,100524.94
2022-10-31T09:37:00.415Z,100518.97
2022-10-31T09:42:46.112Z,100524.44
2022-10-31T09:48:07.229Z,100524.91
2022-10-31T09:53:22.346Z,100520.88
2022-10-31T09:58:27.600Z,100532.78
2022-10-31T10:03:35.508Z,100524.97
2022-10-31T10:08:46.303Z,100521.19
2022-10-31T10:14:27.712Z,100508.31
2022-10-31T10:20:14.920Z,100510.56
2022-10-31T10:25:34.597Z,100503.56
2022-10-31T10:30:47.396Z,100497.78
2022-10-31T10:35:53.336Z,100503.16
2022-10-31T10:40:55.605Z,100501.91
2022-10-31T10:46:39.270Z,100496.94
2022-10-31T10:57:28.080Z,100485.56
2022-10-31T11:02:33.846Z,100483.47
2022-10-31T11:07:41.634Z,100476.28
2022-10-31T11:12:57.746Z,100475.13
2022-10-31T11:17:59.999Z,100462.06
2022-10-31T11:23:19.418Z,100457.91
2022-10-31T11:28:21.466Z,100459.38
2022-10-31T11:33:32.410Z,100444.91
2022-10-31T11:38:42.476Z,100443.00
2022-10-31T11:44:19.643Z,100443.44
2022-10-31T11:49:37.747Z,100432.50
2022-10-31T11:54:50.699Z,100417.97
2022-10-31T11:59:54.711Z,100408.97
2022-10-31T12:05:07.634Z,100405.78
2022-10-31T12:10:14.635Z,100405.59
2022-10-31T12:15:32.213Z,100400.19
2022-10-31T12:20:59.471Z,100393.50
2022-10-31T12:26:36.506Z,100392.53
2022-10-31T12:31:52.998Z,100382.44
2022-10-31T12:36:57.185Z,100380.84
2022-10-31T12:42:19.615Z,100378.13
2022-10-31T12:47:58.637Z,100369.13
2022-10-31T12:53:29.228Z,100363.97
2022-10-31T12:58:36.586Z,100351.78
2022-10-31T13:03:57.982Z,100361.97
2022-10-31T13:09:03.959Z,100347.16
2022-10-31T13:14:17.851Z,100338.97
2022-10-31T13:19:27.344Z,100336.31
2022-10-31T13:24:37.861Z,100333.53
2022-10-31T13:29:55.064Z,100328.69
2022-10-31T13:34:59.989Z,100323.22
2022-10-31T13:40:10.653Z,100322.84
2022-10-31T13:45:18.586Z,100324.75
2022-10-31T13:50:24.088Z,100320.75
2022-10-31T13:55:42.920Z,100313.38
2022-10-31T14:00:45.151Z,100314.88
2022-10-31T14:05:54.599Z,100306.47
2022-10-31T14:10:57.160Z,100299.19
2022-10-31T14:16:17.528Z,100298.09
2022-10-31T14:21:24.921Z,100285.03
2022-10-31T14:26:29.626Z,100281.34
2022-10-31T14:31:47.358Z,100283.00
2022-10-31T14:37:10.709Z,100267.72
2022-10-31T14:42:38.919Z,100266.53
2022-10-31T14:47:47.557Z,100259.03
2022-10-31T14:52:53.364Z,100264.50
2022-10-31T14:58:00.511Z,100268.63
2022-10-31T15:03:08.948Z,100248.72
2022-10-31T15:08:15.299Z,100259.13
2022-10-31T15:13:22.535Z,100253.03
2022-10-31T15:18:27.832Z,100253.19
2022-10-31T15:23:30.963Z,100247.06
2022-10-31T15:28:33.027Z,100241.88
2022-10-31T15:33:48.185Z,100236.16
2022-10-31T15:38:50.952Z,100235.78
2022-10-31T15:43:52.728Z,100239.16
2022-10-31T15:48:55.224Z,100226.19
2022-10-31T15:53:58.224Z,100220.13
2022-10-31T15:59:01.858Z,100215.09
2022-10-31T16:04:23.626Z,100210.69
2022-10-31T16:09:25.499Z,100201.09
2022-10-31T16:14:30.271Z,100205.09
2022-10-31T16:19:38.818Z,100206.03
2022-10-31T16:24:54.782Z,100213.28
2022-10-31T16:29:58.528Z,100215.25
2022-10-31T16:35:09.500Z,100207.50
2022-10-31T16:40:14.756Z,100204.38
2022-10-31T16:45:28.043Z,100207.78
2022-10-31T16:50:29.966Z,100207.19
2022-10-31T16:55:32.674Z,100207.19
2022-10-31T17:00:34.330Z,100207.09
2022-10-31T17:05:36.805Z,100201.56
2022-10-31T17:10:39.732Z,100200.63
2022-10-31T17:15:48.459Z,100203.81
2022-10-31T17:20:50.821Z,100192.63
2022-10-31T17:25:52.370Z,100194.44
2022-10-31T17:30:55.730Z,100192.69
2022-10-31T17:35:57.290Z,100192.66
2022-10-31T17:40:58.892Z,100181.34
2022-10-31T17:46:01.341Z,100183.09
2022-10-31T17:51:07.177Z,100177.31
2022-10-31T17:56:10.005Z,100170.44
2022-10-31T18:01:14.778Z,100182.44
2022-10-31T18:06:17.032Z,100175.47
2022-10-31T18:11:20.983Z,100168.53
2022-10-31T18:16:23.596Z,100183.94
2022-10-31T18:21:25.683Z,100171.47
2022-10-31T18:26:28.248Z,100172.34
2022-10-31T18:31:29.969Z,100168.50
2022-10-31T18:36:31.894Z,100160.84
2022-10-31T18:41:33.762Z,100148.94
2022-10-31T18:46:36.259Z,100157.63
2022-10-31T18:51:37.959Z,100151.44
2022-10-31T18:56:39.639Z,100155.59
2022-10-31T19:01:41.361Z,100148.78
2022-10-31T19:06:43.093Z,100143.63
2022-10-31T19:11:44.682Z,100150.56
2022-10-31T19:16:46.341Z,100143.13
2022-10-31T19:21:47.991Z,100140.97
2022-10-31T19:26:49.910Z,100131.75
2022-10-31T19:31:51.518Z,100122.41
2022-10-31T19:36:53.587Z,100130.22
2022-10-31T19:41:55.134Z,100119.56
2022-10-31T19:46:56.883Z,100122.66
2022-10-31T19:51:58.595Z,100113.91
2022-10-31T19:57:01.064Z,100112.44
2022-10-31T20:02:02.682Z,100098.56
2022-10-31T20:07:04.345Z,100094.56
2022-10-31T20:12:06.376Z,100098.81
2022-10-31T20:17:09.039Z,100098.41
2022-10-31T20:22:11.092Z,100084.50
2022-10-31T20:27:12.622Z,100091.69
2022-10-31T20:32:14.216Z,100095.25
2022-10-31T20:37:15.813Z,100083.66
2022-10-31T20:42:17.392Z,100076.75
2022-10-31T20:47:21.978Z,100072.84
2022-10-31T20:52:26.489Z,100065.84
2022-10-31T20:57:27.969Z,100053.13
2022-10-31T21:02:29.670Z,100040.97
2022-10-31T21:07:31.366Z,100045.81
2022-10-31T21:12:33.796Z,100051.41
2022-10-31T21:17:35.364Z,100044.03
2022-10-31T21:22:37.415Z,100034.91
2022-10-31T21:27:38.909Z,100034.88
2022-10-31T21:32:40.481Z,100046.28
2022-10-31T21:37:42.065Z,100036.78
2022-10-31T21:42:43.631Z,100026.13
2022-10-31T21:47:45.230Z,100023.69
2022-10-31T21:52:46.792Z,100016.13
2022-10-31T21:57:48.310Z,100015.59
2022-10-31T22:02:49.904Z,100000.81
2022-10-31T22:07:51.437Z,99990.38
2022-10-31T22:12:53.075Z,99981.97
2022-10-31T22:17:54.627Z,99988.25
2022-10-31T22:22:56.208Z,99983.09
2022-10-31T22:27:57.815Z,99991.41
2022-10-31T22:32:59.925Z,99984.59
2022-10-31T22:38:01.842Z,99961.69
2022-10-31T22:43:03.814Z,99971.28
2022-10-31T22:48:06.051Z,99954.97
2022-10-31T22:53:07.740Z,99950.22
2022-10-31T22:58:10.086Z,99946.25
2022-10-31T23:03:14.118Z,99944.97
2022-10-31T23:08:19.024Z,99937.03
2022-10-31T23:13:39.476Z,99932.25
2022-10-31T23:18:55.997Z,99928.03
2022-10-31T23:23:57.933Z,99922.38
2022-10-31T23:28:59.484Z,99908.94
2022-10-31T23:34:01.103Z,99901.34
2022-10-31T23:39:02.730Z,99903.97
2022-10-31T23:44:04.513Z,99888.19
2022-10-31T23:49:06.041Z,99882.06
2022-10-31T23:54:07.785Z,99877.03
2022-10-31T23:59:09.548Z,99884.28
